Terminal Aerodrome Forecast
Issued by NWS Northern Indiana

Home | Current Version | Previous Version | Graphics & Text | Print | Product List | Glossary On
Versions: 1 2 3 4 5 6 7 8 9 10 11 12 13 14 15 16 17 18 19 20
037
FTUS43 KIWX 202320
TAFFWA
TAF
KFWA 202320Z 2100/2124 21010KT P6SM BKN015
     FM210600 20006KT 2SM BR OVC007
     FM211200 19006KT 1/2SM -DZ FG OVC003=

USA.gov is the U.S. government's official web portal to all federal, state and local government web resources and services.